sensor_id;sensor_type;location;lat;lon;timestamp;pressure;altitude;pressure_sealevel;temperature;humidity
79269;BME280;68714;48.586;7.772;2023-05-07T00:01:06;99685.25;;;16.70;52.48
79269;BME280;68714;48.586;7.772;2023-05-07T00:03:32;99691.56;;;16.69;52.54
79269;BME280;68714;48.586;7.772;2023-05-07T00:05:57;99691.34;;;16.72;52.77
79269;BME280;68714;48.586;7.772;2023-05-07T00:08:23;99696.44;;;16.75;52.88
79269;BME280;68714;48.586;7.772;2023-05-07T00:10:49;99691.34;;;16.72;52.78
79269;BME280;68714;48.586;7.772;2023-05-07T00:13:15;99688.88;;;16.69;52.85
79269;BME280;68714;48.586;7.772;2023-05-07T00:15:40;99688.34;;;16.64;53.15
79269;BME280;68714;48.586;7.772;2023-05-07T00:18:06;99684.81;;;16.64;53.04
79269;BME280;68714;48.586;7.772;2023-05-07T00:20:31;99687.16;;;16.68;53.06
79269;BME280;68714;48.586;7.772;2023-05-07T00:22:57;99678.34;;;16.68;53.06
79269;BME280;68714;48.586;7.772;2023-05-07T00:25:22;99682.56;;;16.70;53.07
79269;BME280;68714;48.586;7.772;2023-05-07T00:27:48;99679.38;;;16.65;53.02
79269;BME280;68714;48.586;7.772;2023-05-07T00:30:13;99691.00;;;16.64;53.16
79269;BME280;68714;48.586;7.772;2023-05-07T00:32:39;99693.97;;;16.59;53.29
79269;BME280;68714;48.586;7.772;2023-05-07T00:35:05;99689.84;;;16.55;53.34
79269;BME280;68714;48.586;7.772;2023-05-07T00:37:31;99691.22;;;16.48;53.55
79269;BME280;68714;48.586;7.772;2023-05-07T00:39:56;99686.50;;;16.39;53.82
79269;BME280;68714;48.586;7.772;2023-05-07T00:42:22;99683.59;;;16.29;53.86
79269;BME280;68714;48.586;7.772;2023-05-07T00:44:48;99678.06;;;16.19;54.04
79269;BME280;68714;48.586;7.772;2023-05-07T00:47:13;99672.09;;;16.16;54.20
79269;BME280;68714;48.586;7.772;2023-05-07T00:49:43;99669.22;;;16.19;54.21
79269;BME280;68714;48.586;7.772;2023-05-07T00:52:14;99672.00;;;16.17;54.26
79269;BME280;68714;48.586;7.772;2023-05-07T00:54:41;99671.88;;;16.19;54.31
79269;BME280;68714;48.586;7.772;2023-05-07T00:57:06;99678.78;;;16.21;54.46
79269;BME280;68714;48.586;7.772;2023-05-07T00:59:32;99683.59;;;16.16;54.35
79269;BME280;68714;48.586;7.772;2023-05-07T01:01:59;99668.34;;;16.18;54.42
79269;BME280;68714;48.586;7.772;2023-05-07T01:04:25;99673.25;;;16.25;54.57
79269;BME280;68714;48.586;7.772;2023-05-07T01:06:52;99672.00;;;16.30;54.27
79269;BME280;68714;48.586;7.772;2023-05-07T01:09:19;99669.34;;;16.30;54.20
79269;BME280;68714;48.586;7.772;2023-05-07T01:11:47;99664.00;;;16.30;54.15
79269;BME280;68714;48.586;7.772;2023-05-07T01:14:13;99679.16;;;16.30;54.49
79269;BME280;68714;48.586;7.772;2023-05-07T01:16:38;99669.66;;;16.26;54.50
79269;BME280;68714;48.586;7.772;2023-05-07T01:19:06;99670.69;;;16.23;54.35
79269;BME280;68714;48.586;7.772;2023-05-07T01:21:36;99672.09;;;16.16;54.92
79269;BME280;68714;48.586;7.772;2023-05-07T01:24:02;99672.72;;;16.07;56.58
79269;BME280;68714;48.586;7.772;2023-05-07T01:26:28;99673.13;;;16.00;54.62
79269;BME280;68714;48.586;7.772;2023-05-07T01:28:53;99668.94;;;15.96;54.87
79269;BME280;68714;48.586;7.772;2023-05-07T01:31:19;99668.31;;;15.93;54.83
79269;BME280;68714;48.586;7.772;2023-05-07T01:33:45;99676.41;;;15.91;54.79
79269;BME280;68714;48.586;7.772;2023-05-07T01:36:13;99664.03;;;15.90;55.03
79269;BME280;68714;48.586;7.772;2023-05-07T01:38:40;99670.50;;;15.86;55.01
79269;BME280;68714;48.586;7.772;2023-05-07T01:41:07;99667.78;;;15.73;55.23
79269;BME280;68714;48.586;7.772;2023-05-07T01:43:33;99674.34;;;15.67;55.63
79269;BME280;68714;48.586;7.772;2023-05-07T01:45:59;99668.56;;;15.61;55.68
79269;BME280;68714;48.586;7.772;2023-05-07T01:48:26;99668.88;;;15.56;55.66
79269;BME280;68714;48.586;7.772;2023-05-07T01:50:52;99672.38;;;15.57;55.63
79269;BME280;68714;48.586;7.772;2023-05-07T01:53:18;99671.53;;;15.56;55.52
79269;BME280;68714;48.586;7.772;2023-05-07T01:55:43;99671.72;;;15.53;55.75
79269;BME280;68714;48.586;7.772;2023-05-07T01:58:09;99665.53;;;15.52;55.87
79269;BME280;68714;48.586;7.772;2023-05-07T02:00:34;99670.75;;;15.54;55.65
79269;BME280;68714;48.586;7.772;2023-05-07T02:03:00;99673.63;;;15.51;55.90
79269;BME280;68714;48.586;7.772;2023-05-07T02:05:25;99670.97;;;15.51;55.94
79269;BME280;68714;48.586;7.772;2023-05-07T02:07:51;99670.22;;;15.49;55.83
79269;BME280;68714;48.586;7.772;2023-05-07T02:10:16;99668.16;;;15.40;56.09
79269;BME280;68714;48.586;7.772;2023-05-07T02:12:41;99670.72;;;15.41;55.95
79269;BME280;68714;48.586;7.772;2023-05-07T02:15:08;99667.31;;;15.39;56.09
79269;BME280;68714;48.586;7.772;2023-05-07T02:17:33;99665.78;;;15.35;56.11
79269;BME280;68714;48.586;7.772;2023-05-07T02:19:59;99660.56;;;15.33;56.13
79269;BME280;68714;48.586;7.772;2023-05-07T02:22:25;99667.69;;;15.33;56.06
79269;BME280;68714;48.586;7.772;2023-05-07T02:24:51;99664.25;;;15.31;56.28
79269;BME280;68714;48.586;7.772;2023-05-07T02:27:16;99670.34;;;15.33;56.31
79269;BME280;68714;48.586;7.772;2023-05-07T02:29:42;99665.78;;;15.35;56.37
79269;BME280;68714;48.586;7.772;2023-05-07T02:32:07;99672.72;;;15.38;56.24
79269;BME280;68714;48.586;7.772;2023-05-07T02:34:33;99675.56;;;15.34;56.13
79269;BME280;68714;48.586;7.772;2023-05-07T02:36:58;99673.22;;;15.30;56.44
79269;BME280;68714;48.586;7.772;2023-05-07T02:39:24;99677.00;;;15.26;56.38
79269;BME280;68714;48.586;7.772;2023-05-07T02:41:49;99675.50;;;15.22;56.45
79269;BME280;68714;48.586;7.772;2023-05-07T02:44:15;99673.13;;;15.17;56.48
79269;BME280;68714;48.586;7.772;2023-05-07T02:46:40;99676.75;;;15.16;56.39
79269;BME280;68714;48.586;7.772;2023-05-07T02:49:06;99669.63;;;15.16;56.85
79269;BME280;68714;48.586;7.772;2023-05-07T02:51:31;99676.38;;;15.22;56.73
79269;BME280;68714;48.586;7.772;2023-05-07T02:53:57;99673.59;;;15.24;56.50
79269;BME280;68714;48.586;7.772;2023-05-07T02:56:22;99670.94;;;15.24;56.66
79269;BME280;68714;48.586;7.772;2023-05-07T02:58:48;99673.59;;;15.24;56.78
79269;BME280;68714;48.586;7.772;2023-05-07T03:01:13;99668.28;;;15.24;56.73
79269;BME280;68714;48.586;7.772;2023-05-07T03:03:39;99669.41;;;15.20;56.61
79269;BME280;68714;48.586;7.772;2023-05-07T03:06:05;99668.69;;;15.18;56.62
79269;BME280;68714;48.586;7.772;2023-05-07T03:08:32;99659.19;;;15.13;56.83
79269;BME280;68714;48.586;7.772;2023-05-07T03:10:57;99662.50;;;15.03;57.16
79269;BME280;68714;48.586;7.772;2023-05-07T03:13:23;99660.34;;;14.95;57.30
79269;BME280;68714;48.586;7.772;2023-05-07T03:15:48;99656.72;;;14.96;57.26
79269;BME280;68714;48.586;7.772;2023-05-07T03:18:13;99658.63;;;14.94;57.21
79269;BME280;68714;48.586;7.772;2023-05-07T03:20:39;99662.41;;;14.90;57.53
79269;BME280;68714;48.586;7.772;2023-05-07T03:23:04;99666.88;;;14.89;57.41
79269;BME280;68714;48.586;7.772;2023-05-07T03:25:31;99658.34;;;14.84;57.45
79269;BME280;68714;48.586;7.772;2023-05-07T03:27:57;99660.03;;;14.85;57.37
79269;BME280;68714;48.586;7.772;2023-05-07T03:30:22;99665.06;;;14.90;57.55
79269;BME280;68714;48.586;7.772;2023-05-07T03:32:48;99661.38;;;14.92;57.53
79269;BME280;68714;48.586;7.772;2023-05-07T03:35:13;99660.25;;;14.96;57.55
79269;BME280;68714;48.586;7.772;2023-05-07T03:37:39;99657.28;;;15.01;57.53
79269;BME280;68714;48.586;7.772;2023-05-07T03:40:06;99664.97;;;15.06;57.43
79269;BME280;68714;48.586;7.772;2023-05-07T03:42:31;99671.03;;;15.08;57.54
79269;BME280;68714;48.586;7.772;2023-05-07T03:44:57;99669.13;;;15.10;57.44
79269;BME280;68714;48.586;7.772;2023-05-07T03:47:22;99671.88;;;15.08;57.36
79269;BME280;68714;48.586;7.772;2023-05-07T03:49:48;99672.06;;;15.05;57.38
79269;BME280;68714;48.586;7.772;2023-05-07T03:52:14;99674.84;;;15.04;57.36
79269;BME280;68714;48.586;7.772;2023-05-07T03:54:40;99668.69;;;15.03;57.23
79269;BME280;68714;48.586;7.772;2023-05-07T03:57:05;99671.13;;;15.06;57.27
79269;BME280;68714;48.586;7.772;2023-05-07T03:59:30;99678.16;;;15.07;57.33
79269;BME280;68714;48.586;7.772;2023-05-07T04:01:56;99682.50;;;15.08;57.37
79269;BME280;68714;48.586;7.772;2023-05-07T04:04:21;99678.28;;;15.06;57.47
79269;BME280;68714;48.586;7.772;2023-05-07T04:06:47;99680.06;;;15.05;57.49
79269;BME280;68714;48.586;7.772;2023-05-07T04:09:12;99686.53;;;15.01;57.77
79269;BME280;68714;48.586;7.772;2023-05-07T04:11:38;99689.38;;;14.98;57.55
79269;BME280;68714;48.586;7.772;2023-05-07T04:14:05;99678.34;;;14.90;57.83
79269;BME280;68714;48.586;7.772;2023-05-07T04:16:30;99680.34;;;14.86;57.99
79269;BME280;68714;48.586;7.772;2023-05-07T04:18:56;99683.00;;;14.86;57.94
79269;BME280;68714;48.586;7.772;2023-05-07T04:21:21;99687.28;;;14.89;58.22
79269;BME280;68714;48.586;7.772;2023-05-07T04:23:47;99686.22;;;14.91;58.00
79269;BME280;68714;48.586;7.772;2023-05-07T04:26:14;99692.41;;;14.92;58.21
79269;BME280;68714;48.586;7.772;2023-05-07T04:28:40;99700.28;;;14.93;58.15
79269;BME280;68714;48.586;7.772;2023-05-07T04:31:08;99697.63;;;14.93;58.16
79269;BME280;68714;48.586;7.772;2023-05-07T04:33:34;99703.50;;;14.98;58.14
79269;BME280;68714;48.586;7.772;2023-05-07T04:36:03;99707.97;;;14.98;58.01
79269;BME280;68714;48.586;7.772;2023-05-07T04:38:31;99714.13;;;14.98;59.65
79269;BME280;68714;48.586;7.772;2023-05-07T04:41:02;99715.84;;;15.00;57.85
79269;BME280;68714;48.586;7.772;2023-05-07T04:43:27;99707.47;;;14.91;58.12
79269;BME280;68714;48.586;7.772;2023-05-07T04:45:53;99715.53;;;14.90;58.03
79269;BME280;68714;48.586;7.772;2023-05-07T04:48:19;99720.22;;;14.86;58.20
79269;BME280;68714;48.586;7.772;2023-05-07T04:50:51;99712.69;;;14.78;59.12
79269;BME280;68714;48.586;7.772;2023-05-07T04:53:17;99707.09;;;14.69;58.68
79269;BME280;68714;48.586;7.772;2023-05-07T04:55:43;99712.69;;;14.64;58.83
79269;BME280;68714;48.586;7.772;2023-05-07T04:58:09;99706.59;;;14.62;58.94
79269;BME280;68714;48.586;7.772;2023-05-07T05:00:34;99710.69;;;14.68;59.04
79269;BME280;68714;48.586;7.772;2023-05-07T05:03:00;99722.94;;;14.70;58.83
79269;BME280;68714;48.586;7.772;2023-05-07T05:05:25;99717.25;;;14.76;58.99
79269;BME280;68714;48.586;7.772;2023-05-07T05:07:50;99729.13;;;14.85;58.94
79269;BME280;68714;48.586;7.772;2023-05-07T05:10:17;99730.28;;;14.95;58.80
79269;BME280;68714;48.586;7.772;2023-05-07T05:12:42;99722.75;;;15.02;58.80
79269;BME280;68714;48.586;7.772;2023-05-07T05:15:08;99722.28;;;15.10;58.47
79269;BME280;68714;48.586;7.772;2023-05-07T05:17:35;99722.78;;;15.16;58.57
79269;BME280;68714;48.586;7.772;2023-05-07T05:20:01;99728.84;;;15.19;58.78
79269;BME280;68714;48.586;7.772;2023-05-07T05:22:27;99729.81;;;15.18;58.59
79269;BME280;68714;48.586;7.772;2023-05-07T05:24:54;99733.22;;;15.20;58.61
79269;BME280;68714;48.586;7.772;2023-05-07T05:27:20;99724.88;;;15.26;58.82
79269;BME280;68714;48.586;7.772;2023-05-07T05:29:45;99735.75;;;15.36;58.87
79269;BME280;68714;48.586;7.772;2023-05-07T05:32:11;99736.81;;;15.47;58.59
79269;BME280;68714;48.586;7.772;2023-05-07T05:34:36;99737.06;;;15.57;58.71
79269;BME280;68714;48.586;7.772;2023-05-07T05:37:01;99743.84;;;15.76;58.74
79269;BME280;68714;48.586;7.772;2023-05-07T05:39:27;99743.56;;;15.95;58.32
79269;BME280;68714;48.586;7.772;2023-05-07T05:41:52;99748.94;;;16.08;58.05
79269;BME280;68714;48.586;7.772;2023-05-07T05:44:18;99747.38;;;16.18;58.00
79269;BME280;68714;48.586;7.772;2023-05-07T05:46:43;99747.59;;;16.28;57.69
79269;BME280;68714;48.586;7.772;2023-05-07T05:49:09;99738.47;;;16.32;57.86
79269;BME280;68714;48.586;7.772;2023-05-07T05:51:34;99746.69;;;16.41;57.58
79269;BME280;68714;48.586;7.772;2023-05-07T05:54:00;99753.97;;;16.52;57.61
79269;BME280;68714;48.586;7.772;2023-05-07T05:56:25;99741.94;;;16.59;57.33
79269;BME280;68714;48.586;7.772;2023-05-07T05:58:51;99755.50;;;16.69;57.42
79269;BME280;68714;48.586;7.772;2023-05-07T06:01:17;99745.25;;;16.76;57.20
79269;BME280;68714;48.586;7.772;2023-05-07T06:03:43;99758.78;;;16.86;57.16
79269;BME280;68714;48.586;7.772;2023-05-07T06:06:09;99752.03;;;16.94;57.00
79269;BME280;68714;48.586;7.772;2023-05-07T06:08:34;99762.03;;;17.04;56.84
79269;BME280;68714;48.586;7.772;2023-05-07T06:11:01;99769.72;;;17.08;56.71
79269;BME280;68714;48.586;7.772;2023-05-07T06:13:26;99753.72;;;17.08;56.62
79269;BME280;68714;48.586;7.772;2023-05-07T06:15:51;99752.78;;;17.09;56.44
79269;BME280;68714;48.586;7.772;2023-05-07T06:18:17;99753.63;;;17.10;56.60
79269;BME280;68714;48.586;7.772;2023-05-07T06:20:42;99759.06;;;17.08;56.44
79269;BME280;68714;48.586;7.772;2023-05-07T06:23:10;99754.38;;;17.12;56.65
79269;BME280;68714;48.586;7.772;2023-05-07T06:25:40;99764.72;;;17.17;56.54
79269;BME280;68714;48.586;7.772;2023-05-07T06:28:07;99762.56;;;17.22;56.47
79269;BME280;68714;48.586;7.772;2023-05-07T06:30:35;99769.41;;;17.26;56.54
79269;BME280;68714;48.586;7.772;2023-05-07T06:33:01;99756.47;;;17.33;56.30
79269;BME280;68714;48.586;7.772;2023-05-07T06:35:26;99760.97;;;17.32;56.18
79269;BME280;68714;48.586;7.772;2023-05-07T06:37:52;99751.69;;;17.25;56.20
79269;BME280;68714;48.586;7.772;2023-05-07T06:40:18;99763.53;;;17.21;56.41
79269;BME280;68714;48.586;7.772;2023-05-07T06:42:44;99764.50;;;17.20;56.46
79269;BME280;68714;48.586;7.772;2023-05-07T06:45:10;99769.84;;;17.20;56.46
79269;BME280;68714;48.586;7.772;2023-05-07T06:47:35;99775.81;;;17.23;56.37
79269;BME280;68714;48.586;7.772;2023-05-07T06:50:02;99770.47;;;17.23;56.39
79269;BME280;68714;48.586;7.772;2023-05-07T06:52:27;99763.75;;;17.31;56.47
79269;BME280;68714;48.586;7.772;2023-05-07T06:54:53;99777.06;;;17.43;56.48
79269;BME280;68714;48.586;7.772;2023-05-07T06:57:18;99773.53;;;17.56;56.48
79269;BME280;68714;48.586;7.772;2023-05-07T06:59:45;99788.53;;;17.70;56.19
79269;BME280;68714;48.586;7.772;2023-05-07T07:02:10;99787.88;;;17.79;56.14
79269;BME280;68714;48.586;7.772;2023-05-07T07:04:36;99782.09;;;17.85;55.88
79269;BME280;68714;48.586;7.772;2023-05-07T07:07:01;99784.66;;;17.87;55.84
79269;BME280;68714;48.586;7.772;2023-05-07T07:09:29;99778.28;;;17.89;55.94
79269;BME280;68714;48.586;7.772;2023-05-07T07:11:57;99783.16;;;17.95;55.87
79269;BME280;68714;48.586;7.772;2023-05-07T07:14:23;99781.66;;;18.04;55.79
79269;BME280;68714;48.586;7.772;2023-05-07T07:16:48;99786.41;;;18.12;55.61
79269;BME280;68714;48.586;7.772;2023-05-07T07:19:14;99789.59;;;18.17;55.61
79269;BME280;68714;48.586;7.772;2023-05-07T07:21:42;99792.53;;;18.25;55.61
79269;BME280;68714;48.586;7.772;2023-05-07T07:24:08;99791.84;;;18.34;55.55
79269;BME280;68714;48.586;7.772;2023-05-07T07:26:33;99786.06;;;18.41;55.39
79269;BME280;68714;48.586;7.772;2023-05-07T07:28:59;99780.88;;;18.50;55.44
79269;BME280;68714;48.586;7.772;2023-05-07T07:31:24;99780.66;;;18.53;55.22
79269;BME280;68714;48.586;7.772;2023-05-07T07:33:55;99783.34;;;18.65;55.06
79269;BME280;68714;48.586;7.772;2023-05-07T07:36:20;99771.47;;;18.69;54.96
79269;BME280;68714;48.586;7.772;2023-05-07T07:38:46;99771.84;;;18.76;55.02
79269;BME280;68714;48.586;7.772;2023-05-07T07:41:13;99766.22;;;18.92;54.87
79269;BME280;68714;48.586;7.772;2023-05-07T07:43:38;99762.94;;;19.11;54.67
79269;BME280;68714;48.586;7.772;2023-05-07T07:46:03;99775.13;;;19.26;54.67
79269;BME280;68714;48.586;7.772;2023-05-07T07:48:30;99765.63;;;19.45;54.47
79269;BME280;68714;48.586;7.772;2023-05-07T07:50:55;99769.38;;;19.65;54.46
79269;BME280;68714;48.586;7.772;2023-05-07T07:53:21;99776.50;;;19.77;54.08
79269;BME280;68714;48.586;7.772;2023-05-07T07:55:46;99775.75;;;19.86;53.92
79269;BME280;68714;48.586;7.772;2023-05-07T07:58:12;99778.72;;;20.04;53.78
79269;BME280;68714;48.586;7.772;2023-05-07T08:00:37;99780.97;;;20.31;53.50
79269;BME280;68714;48.586;7.772;2023-05-07T08:03:03;99778.38;;;20.62;53.03
79269;BME280;68714;48.586;7.772;2023-05-07T08:05:29;99786.78;;;20.90;52.34
79269;BME280;68714;48.586;7.772;2023-05-07T08:07:54;99782.59;;;20.97;52.30
79269;BME280;68714;48.586;7.772;2023-05-07T08:10:34;99795.84;;;21.10;51.87
79269;BME280;68714;48.586;7.772;2023-05-07T08:13:04;99789.06;;;21.16;51.58
79269;BME280;68714;48.586;7.772;2023-05-07T08:15:31;99786.13;;;21.19;51.52
79269;BME280;68714;48.586;7.772;2023-05-07T08:17:57;99783.97;;;21.13;50.78
79269;BME280;68714;48.586;7.772;2023-05-07T08:20:23;99790.53;;;20.99;50.91
79269;BME280;68714;48.586;7.772;2023-05-07T08:22:49;99797.97;;;20.74;50.86
79269;BME280;68714;48.586;7.772;2023-05-07T08:25:14;99793.56;;;20.52;51.29
79269;BME280;68714;48.586;7.772;2023-05-07T08:27:40;99789.56;;;20.46;51.46
79269;BME280;68714;48.586;7.772;2023-05-07T08:30:06;99784.13;;;20.58;51.50
79269;BME280;68714;48.586;7.772;2023-05-07T08:32:31;99793.47;;;20.75;51.40
79269;BME280;68714;48.586;7.772;2023-05-07T08:34:57;99802.09;;;20.99;50.92
79269;BME280;68714;48.586;7.772;2023-05-07T08:37:22;99802.75;;;21.13;50.59
79269;BME280;68714;48.586;7.772;2023-05-07T08:39:48;99796.19;;;21.27;50.32
79269;BME280;68714;48.586;7.772;2023-05-07T08:42:16;99797.13;;;21.47;50.27
79269;BME280;68714;48.586;7.772;2023-05-07T08:44:45;99789.06;;;21.68;49.81
79269;BME280;68714;48.586;7.772;2023-05-07T08:47:12;99783.19;;;21.94;49.79
79269;BME280;68714;48.586;7.772;2023-05-07T08:49:38;99785.63;;;22.26;49.29
79269;BME280;68714;48.586;7.772;2023-05-07T08:52:03;99783.28;;;22.42;49.04
79269;BME280;68714;48.586;7.772;2023-05-07T08:54:29;99789.81;;;22.50;48.75
79269;BME280;68714;48.586;7.772;2023-05-07T08:56:56;99784.84;;;22.55;48.35
79269;BME280;68714;48.586;7.772;2023-05-07T08:59:21;99771.09;;;22.58;48.34
79269;BME280;68714;48.586;7.772;2023-05-07T09:01:47;99777.47;;;22.47;48.21
79269;BME280;68714;48.586;7.772;2023-05-07T09:04:13;99777.63;;;22.46;48.54
79269;BME280;68714;48.586;7.772;2023-05-07T09:06:38;99784.56;;;22.48;48.35
79269;BME280;68714;48.586;7.772;2023-05-07T09:09:07;99781.75;;;22.50;48.27
79269;BME280;68714;48.586;7.772;2023-05-07T09:11:34;99788.22;;;22.57;48.06
79269;BME280;68714;48.586;7.772;2023-05-07T09:14:00;99785.84;;;22.64;47.79
79269;BME280;68714;48.586;7.772;2023-05-07T09:16:29;99779.72;;;22.81;47.88
79269;BME280;68714;48.586;7.772;2023-05-07T09:18:59;99780.13;;;22.96;47.68
79269;BME280;68714;48.586;7.772;2023-05-07T09:21:27;99782.53;;;23.09;47.23
79269;BME280;68714;48.586;7.772;2023-05-07T09:23:54;99778.28;;;23.06;46.90
79269;BME280;68714;48.586;7.772;2023-05-07T09:26:24;99770.88;;;22.98;46.19
79269;BME280;68714;48.586;7.772;2023-05-07T09:28:50;99769.09;;;22.79;46.58
79269;BME280;68714;48.586;7.772;2023-05-07T09:31:16;99771.09;;;22.77;47.02
79269;BME280;68714;48.586;7.772;2023-05-07T09:33:41;99775.47;;;22.78;46.97
79269;BME280;68714;48.586;7.772;2023-05-07T09:36:09;99771.66;;;22.71;46.96
79269;BME280;68714;48.586;7.772;2023-05-07T09:38:35;99769.81;;;22.72;46.59
79269;BME280;68714;48.586;7.772;2023-05-07T09:41:06;99771.53;;;22.73;46.96
79269;BME280;68714;48.586;7.772;2023-05-07T09:43:33;99773.63;;;22.69;46.60
79269;BME280;68714;48.586;7.772;2023-05-07T09:46:11;99767.13;;;22.72;46.79
79269;BME280;68714;48.586;7.772;2023-05-07T09:48:38;99774.78;;;22.76;46.77
79269;BME280;68714;48.586;7.772;2023-05-07T09:54:02;99772.63;;;23.09;46.71
79269;BME280;68714;48.586;7.772;2023-05-07T09:56:30;99774.44;;;23.19;45.78
79269;BME280;68714;48.586;7.772;2023-05-07T09:58:59;99774.72;;;23.15;45.84
79269;BME280;68714;48.586;7.772;2023-05-07T10:01:25;99782.22;;;23.02;45.93
79269;BME280;68714;48.586;7.772;2023-05-07T10:03:52;99788.47;;;22.93;46.12
79269;BME280;68714;48.586;7.772;2023-05-07T10:06:20;99786.50;;;22.85;46.18
79269;BME280;68714;48.586;7.772;2023-05-07T10:08:45;99781.56;;;22.80;46.09
79269;BME280;68714;48.586;7.772;2023-05-07T10:11:12;99781.13;;;22.75;46.38
79269;BME280;68714;48.586;7.772;2023-05-07T10:13:39;99780.84;;;22.78;46.13
79269;BME280;68714;48.586;7.772;2023-05-07T10:16:05;99774.78;;;22.76;46.29
79269;BME280;68714;48.586;7.772;2023-05-07T10:18:32;99765.84;;;22.76;46.17
79269;BME280;68714;48.586;7.772;2023-05-07T10:21:17;99776.47;;;22.58;45.68
79269;BME280;68714;48.586;7.772;2023-05-07T10:23:53;99782.16;;;22.45;46.02
79269;BME280;68714;48.586;7.772;2023-05-07T10:26:21;99775.06;;;22.44;46.33
79269;BME280;68714;48.586;7.772;2023-05-07T10:34:38;99784.09;;;22.72;45.30
79269;BME280;68714;48.586;7.772;2023-05-07T10:37:07;99782.97;;;22.75;45.42
79269;BME280;68714;48.586;7.772;2023-05-07T10:39:34;99784.53;;;22.68;45.09
79269;BME280;68714;48.586;7.772;2023-05-07T10:42:12;99777.47;;;22.67;44.36
79269;BME280;68714;48.586;7.772;2023-05-07T10:44:38;99776.03;;;22.72;44.98
79269;BME280;68714;48.586;7.772;2023-05-07T10:47:16;99777.19;;;22.70;43.65
79269;BME280;68714;48.586;7.772;2023-05-07T10:52:23;99780.16;;;22.76;44.37
79269;BME280;68714;48.586;7.772;2023-05-07T10:55:19;99777.72;;;22.93;44.13
79269;BME280;68714;48.586;7.772;2023-05-07T10:57:50;99768.47;;;23.15;44.32
79269;BME280;68714;48.586;7.772;2023-05-07T11:05:32;99767.94;;;23.77;43.36
79269;BME280;68714;48.586;7.772;2023-05-07T11:08:00;99768.94;;;23.76;43.40
79269;BME280;68714;48.586;7.772;2023-05-07T11:10:55;99766.19;;;23.58;42.22
79269;BME280;68714;48.586;7.772;2023-05-07T11:13:47;99762.22;;;23.52;42.77
79269;BME280;68714;48.586;7.772;2023-05-07T11:16:23;99761.19;;;23.63;43.55
79269;BME280;68714;48.586;7.772;2023-05-07T11:18:51;99771.47;;;23.77;43.78
79269;BME280;68714;48.586;7.772;2023-05-07T11:21:40;99775.16;;;23.76;42.91
79269;BME280;68714;48.586;7.772;2023-05-07T11:24:07;99779.41;;;23.79;43.49
79269;BME280;68714;48.586;7.772;2023-05-07T11:27:01;99777.09;;;23.94;43.10
79269;BME280;68714;48.586;7.772;2023-05-07T11:29:50;99781.19;;;24.16;43.26
79269;BME280;68714;48.586;7.772;2023-05-07T11:32:26;99783.28;;;24.22;43.08
79269;BME280;68714;48.586;7.772;2023-05-07T12:36:13;99798.72;;;22.70;44.67
79269;BME280;68714;48.586;7.772;2023-05-07T12:38:39;99799.13;;;22.65;44.47
79269;BME280;68714;48.586;7.772;2023-05-07T12:41:07;99793.47;;;22.49;44.42
79269;BME280;68714;48.586;7.772;2023-05-07T12:43:33;99804.75;;;22.33;44.67
79269;BME280;68714;48.586;7.772;2023-05-07T12:46:01;99798.94;;;22.18;44.83
79269;BME280;68714;48.586;7.772;2023-05-07T12:48:26;99794.25;;;22.10;44.98
79269;BME280;68714;48.586;7.772;2023-05-07T12:50:56;99799.91;;;22.07;45.23
79269;BME280;68714;48.586;7.772;2023-05-07T12:53:23;99808.13;;;22.05;45.28
79269;BME280;68714;48.586;7.772;2023-05-07T12:55:54;99804.69;;;22.03;45.43
79269;BME280;68714;48.586;7.772;2023-05-07T13:00:51;99808.94;;;22.06;45.86
79269;BME280;68714;48.586;7.772;2023-05-07T13:03:28;99813.50;;;22.05;46.42
79269;BME280;68714;48.586;7.772;2023-05-07T13:05:58;99814.47;;;22.04;46.30
79269;BME280;68714;48.586;7.772;2023-05-07T13:08:36;99813.31;;;21.97;46.95
79269;BME280;68714;48.586;7.772;2023-05-07T13:11:03;99818.69;;;21.97;46.74
79269;BME280;68714;48.586;7.772;2023-05-07T13:13:34;99819.69;;;21.96;47.04
79269;BME280;68714;48.586;7.772;2023-05-07T13:16:03;99815.84;;;21.89;47.31
79269;BME280;68714;48.586;7.772;2023-05-07T13:18:30;99809.31;;;21.82;47.58
79269;BME280;68714;48.586;7.772;2023-05-07T13:20:56;99801.84;;;21.85;47.74
79269;BME280;68714;48.586;7.772;2023-05-07T13:23:21;99813.59;;;21.94;47.87
79269;BME280;68714;48.586;7.772;2023-05-07T13:25:48;99808.81;;;21.98;48.02
79269;BME280;68714;48.586;7.772;2023-05-07T13:28:13;99809.66;;;22.08;48.16
79269;BME280;68714;48.586;7.772;2023-05-07T13:30:39;99808.81;;;22.07;48.34
79269;BME280;68714;48.586;7.772;2023-05-07T13:33:06;99810.66;;;22.07;48.33
79269;BME280;68714;48.586;7.772;2023-05-07T13:35:32;99813.22;;;22.08;48.77
79269;BME280;68714;48.586;7.772;2023-05-07T13:37:58;99809.66;;;21.98;49.15
79269;BME280;68714;48.586;7.772;2023-05-07T13:40:24;99811.59;;;21.86;49.45
79269;BME280;68714;48.586;7.772;2023-05-07T13:42:49;99811.28;;;21.80;49.79
79269;BME280;68714;48.586;7.772;2023-05-07T13:45:17;99804.88;;;21.71;50.11
79269;BME280;68714;48.586;7.772;2023-05-07T13:47:43;99823.94;;;21.58;50.15
79269;BME280;68714;48.586;7.772;2023-05-07T13:50:09;99810.81;;;21.44;50.79
79269;BME280;68714;48.586;7.772;2023-05-07T13:52:37;99813.28;;;21.26;50.95
79269;BME280;68714;48.586;7.772;2023-05-07T13:55:03;99815.19;;;21.14;50.92
79269;BME280;68714;48.586;7.772;2023-05-07T13:57:28;99819.91;;;21.22;51.30
79269;BME280;68714;48.586;7.772;2023-05-07T13:59:54;99818.69;;;21.35;51.02
79269;BME280;68714;48.586;7.772;2023-05-07T14:02:19;99808.75;;;21.47;51.18
79269;BME280;68714;48.586;7.772;2023-05-07T14:04:45;99815.00;;;21.58;50.96
79269;BME280;68714;48.586;7.772;2023-05-07T14:07:10;99828.03;;;21.62;51.06
79269;BME280;68714;48.586;7.772;2023-05-07T14:09:36;99822.34;;;21.55;50.88
79269;BME280;68714;48.586;7.772;2023-05-07T14:12:01;99827.03;;;21.53;51.04
79269;BME280;68714;48.586;7.772;2023-05-07T14:14:27;99823.75;;;21.50;51.04
79269;BME280;68714;48.586;7.772;2023-05-07T14:16:52;99814.91;;;21.38;51.25
79269;BME280;68714;48.586;7.772;2023-05-07T14:19:18;99827.16;;;21.31;51.51